createdAt,value
2022-12-15T00:02:35.513Z,-1.20
2022-12-15T00:05:22.482Z,-1.21
2022-12-15T00:08:08.758Z,-1.21
2022-12-15T00:10:54.265Z,-1.20
2022-12-15T00:13:40.148Z,-1.17
2022-12-15T00:16:26.070Z,-1.21
2022-12-15T00:19:12.403Z,-1.24
2022-12-15T00:21:57.703Z,-1.22
2022-12-15T00:24:43.408Z,-1.20
2022-12-15T00:27:28.848Z,-1.24
2022-12-15T00:30:14.546Z,-1.27
2022-12-15T00:33:00.041Z,-1.29
2022-12-15T00:35:45.944Z,-1.33
2022-12-15T00:38:33.696Z,-1.34
2022-12-15T00:41:02.146Z,-1.29
2022-12-15T00:43:34.921Z,-1.28
2022-12-15T00:46:22.565Z,-1.27
2022-12-15T00:48:50.438Z,-1.27
2022-12-15T00:51:18.692Z,-1.28
2022-12-15T00:54:05.135Z,-1.26
2022-12-15T00:56:51.812Z,-1.27
2022-12-15T00:59:37.298Z,-1.27
2022-12-15T01:02:23.038Z,-1.27
2022-12-15T01:05:08.571Z,-1.32
2022-12-15T01:07:54.214Z,-1.36
2022-12-15T01:10:39.685Z,-1.42
2022-12-15T01:13:25.513Z,-1.44
2022-12-15T01:16:11.251Z,-1.44
2022-12-15T01:18:56.888Z,-1.50
2022-12-15T01:21:25.493Z,-1.46
2022-12-15T01:23:53.740Z,-1.47
2022-12-15T01:26:20.752Z,-1.50
2022-12-15T01:28:47.941Z,-1.49
2022-12-15T01:31:15.867Z,-1.51
2022-12-15T01:33:43.776Z,-1.50
2022-12-15T01:36:11.684Z,-1.55
2022-12-15T01:38:38.826Z,-1.59
2022-12-15T01:41:11.960Z,-1.61
2022-12-15T01:43:40.968Z,-1.62
2022-12-15T01:46:24.603Z,-1.69
2022-12-15T01:49:02.810Z,-1.69
2022-12-15T01:51:39.670Z,-1.75
2022-12-15T01:54:15.420Z,-1.74
2022-12-15T01:56:49.578Z,-1.76
2022-12-15T01:59:28.765Z,-1.82
2022-12-15T02:01:55.817Z,-1.88
2022-12-15T02:04:24.433Z,-1.88
2022-12-15T02:06:53.132Z,-1.87
2022-12-15T02:09:24.349Z,-1.88
2022-12-15T02:12:12.643Z,-1.89
2022-12-15T02:15:05.142Z,-1.91
2022-12-15T02:18:09.018Z,-1.91
2022-12-15T02:20:58.632Z,-1.89
2022-12-15T02:24:13.300Z,-1.94
2022-12-15T02:27:11.167Z,-1.92
2022-12-15T02:30:27.954Z,-1.92
2022-12-15T02:33:11.423Z,-1.90
2022-12-15T02:36:26.085Z,-1.89
2022-12-15T02:38:53.159Z,-1.91
2022-12-15T02:41:41.564Z,-1.94
2022-12-15T02:44:35.380Z,-1.99
2022-12-15T02:47:37.289Z,-2.00
2022-12-15T02:50:45.053Z,-1.98
2022-12-15T02:54:15.597Z,-1.96
2022-12-15T02:57:26.905Z,-1.95
2022-12-15T03:00:06.281Z,-1.92
2022-12-15T03:02:38.140Z,-1.94
2022-12-15T03:05:06.543Z,-1.96
2022-12-15T03:07:33.671Z,-1.96
2022-12-15T03:10:04.701Z,-1.96
2022-12-15T03:12:31.966Z,-1.99
2022-12-15T03:14:58.968Z,-2.00
2022-12-15T03:17:26.050Z,-1.94
2022-12-15T03:19:52.958Z,-1.93
2022-12-15T03:22:20.406Z,-1.91
2022-12-15T03:24:48.358Z,-1.92
2022-12-15T03:27:15.610Z,-1.90
2022-12-15T03:29:42.530Z,-1.90
2022-12-15T03:32:09.747Z,-1.89
2022-12-15T03:34:36.676Z,-1.89
2022-12-15T03:37:03.740Z,-1.93
2022-12-15T03:39:30.595Z,-1.93
2022-12-15T03:41:57.909Z,-1.95
2022-12-15T03:44:24.854Z,-1.99
2022-12-15T03:46:52.075Z,-1.97
2022-12-15T03:49:18.994Z,-1.94
2022-12-15T03:51:46.069Z,-1.96
2022-12-15T03:54:14.170Z,-1.97
2022-12-15T03:56:41.252Z,-2.01
2022-12-15T03:59:08.082Z,-2.00
2022-12-15T04:01:36.809Z,-1.94
2022-12-15T04:04:05.120Z,-2.03
2022-12-15T04:06:32.431Z,-2.03
2022-12-15T04:08:59.358Z,-2.03
2022-12-15T04:11:26.453Z,-2.03
2022-12-15T04:13:53.403Z,-2.00
2022-12-15T04:16:20.734Z,-2.01
2022-12-15T04:19:08.234Z,-2.03
2022-12-15T04:21:35.314Z,-2.09
2022-12-15T04:24:21.048Z,-2.16
2022-12-15T04:27:06.752Z,-2.10
2022-12-15T04:29:52.080Z,-2.17
2022-12-15T04:32:37.714Z,-2.13
2022-12-15T04:35:24.169Z,-2.07
2022-12-15T04:38:11.315Z,-2.05
2022-12-15T04:40:57.266Z,-2.11
2022-12-15T04:43:43.651Z,-2.10
2022-12-15T04:46:29.000Z,-2.14
2022-12-15T04:49:14.666Z,-2.16
2022-12-15T04:52:00.115Z,-2.19
2022-12-15T04:54:46.013Z,-2.19
2022-12-15T04:57:31.470Z,-2.13
2022-12-15T05:00:17.127Z,-2.09
2022-12-15T05:03:02.428Z,-2.01
2022-12-15T05:05:48.053Z,-2.01
2022-12-15T05:08:33.325Z,-2.07
2022-12-15T05:11:19.578Z,-2.09
2022-12-15T05:14:05.007Z,-2.14
2022-12-15T05:16:50.817Z,-2.14
2022-12-15T05:19:36.693Z,-2.14
2022-12-15T05:22:22.298Z,-2.21
2022-12-15T05:25:07.644Z,-2.28
2022-12-15T05:27:53.165Z,-2.31
2022-12-15T05:30:38.617Z,-2.44
2022-12-15T05:33:06.209Z,-2.39
2022-12-15T05:35:33.094Z,-2.32
2022-12-15T05:38:00.365Z,-2.29
2022-12-15T05:40:27.277Z,-2.27
2022-12-15T05:42:59.366Z,-2.23
2022-12-15T05:45:27.919Z,-2.19
2022-12-15T05:47:55.629Z,-2.23
2022-12-15T05:50:23.680Z,-2.23
2022-12-15T05:52:51.199Z,-2.24
2022-12-15T05:55:19.388Z,-2.18
2022-12-15T05:57:54.259Z,-2.17
2022-12-15T06:00:22.136Z,-2.14
2022-12-15T06:02:50.072Z,-2.13
2022-12-15T06:05:17.442Z,-2.11
2022-12-15T06:07:44.639Z,-2.09
2022-12-15T06:10:11.876Z,-2.11
2022-12-15T06:12:38.952Z,-2.11
2022-12-15T06:15:06.421Z,-2.11
2022-12-15T06:17:33.654Z,-2.12
2022-12-15T06:20:00.523Z,-2.09
2022-12-15T06:22:29.851Z,-2.09
2022-12-15T06:24:56.867Z,-2.11
2022-12-15T06:27:24.379Z,-2.11
2022-12-15T06:29:51.350Z,-2.10
2022-12-15T06:32:18.505Z,-2.09
2022-12-15T06:34:45.510Z,-2.07
2022-12-15T06:37:12.911Z,-2.03
2022-12-15T06:39:39.809Z,-2.01
2022-12-15T06:42:06.898Z,-1.98
2022-12-15T06:44:33.858Z,-1.96
2022-12-15T06:47:01.114Z,-1.93
2022-12-15T06:49:28.174Z,-1.93
2022-12-15T06:51:55.317Z,-1.88
2022-12-15T06:54:22.340Z,-1.84
2022-12-15T06:56:49.948Z,-1.86
2022-12-15T06:59:17.266Z,-1.90
2022-12-15T07:01:44.718Z,-1.93
2022-12-15T07:04:12.175Z,-1.95
2022-12-15T07:06:40.638Z,-1.97
2022-12-15T07:09:16.115Z,-1.97
2022-12-15T07:11:43.985Z,-2.02
2022-12-15T07:14:11.071Z,-2.03
2022-12-15T07:16:38.277Z,-1.99
2022-12-15T07:19:05.217Z,-1.97
2022-12-15T07:21:32.607Z,-1.93
2022-12-15T07:24:01.273Z,-1.94
2022-12-15T07:26:29.153Z,-1.91
2022-12-15T07:28:56.612Z,-1.95
2022-12-15T07:31:24.100Z,-1.94
2022-12-15T07:33:52.617Z,-1.92
2022-12-15T07:36:20.708Z,-1.89
2022-12-15T07:38:50.545Z,-1.87
2022-12-15T07:41:20.278Z,-1.86
2022-12-15T07:43:48.072Z,-1.85
2022-12-15T07:46:16.392Z,-1.88
2022-12-15T07:48:43.742Z,-1.91
2022-12-15T07:51:18.796Z,-1.93
2022-12-15T07:53:49.822Z,-1.89
2022-12-15T07:56:18.714Z,-1.88
2022-12-15T07:58:45.989Z,-1.87
2022-12-15T08:01:15.649Z,-1.85
2022-12-15T08:03:43.006Z,-1.85
2022-12-15T08:06:14.238Z,-1.90
2022-12-15T08:08:41.904Z,-1.91
2022-12-15T08:11:13.594Z,-1.96
2022-12-15T08:16:30.299Z,-1.97
2022-12-15T08:18:57.364Z,-1.99
2022-12-15T08:21:24.824Z,-2.00
2022-12-15T08:23:51.830Z,-2.03
2022-12-15T08:26:22.603Z,-2.05
2022-12-15T08:28:54.156Z,-2.08
2022-12-15T08:31:24.056Z,-2.07
2022-12-15T08:33:51.696Z,-2.07
2022-12-15T08:36:19.448Z,-2.07
2022-12-15T08:38:47.667Z,-2.02
2022-12-15T08:41:23.042Z,-2.05
2022-12-15T08:43:51.753Z,-2.02
2022-12-15T08:46:31.895Z,-2.01
2022-12-15T08:48:58.885Z,-1.99
2022-12-15T08:51:29.934Z,-1.98
2022-12-15T08:53:58.708Z,-1.97
2022-12-15T08:56:27.930Z,-1.94
2022-12-15T08:59:01.065Z,-1.90
2022-12-15T09:01:32.334Z,-1.83
2022-12-15T09:04:01.449Z,-1.76
2022-12-15T09:06:33.062Z,-1.75
2022-12-15T09:09:04.560Z,-1.70
2022-12-15T09:11:32.255Z,-1.66
2022-12-15T09:13:59.327Z,-1.65
2022-12-15T09:16:27.877Z,-1.61
2022-12-15T09:18:58.852Z,-1.63
2022-12-15T09:21:29.101Z,-1.63
2022-12-15T09:24:01.808Z,-1.55
2022-12-15T09:26:33.333Z,-1.54
2022-12-15T09:29:02.136Z,-1.50
2022-12-15T09:31:36.467Z,-1.46
2022-12-15T09:34:03.875Z,-1.38
2022-12-15T09:36:35.253Z,-1.31
2022-12-15T09:39:03.046Z,-1.24
2022-12-15T09:41:34.849Z,-1.19
2022-12-15T09:44:06.813Z,-1.17
2022-12-15T09:47:09.404Z,-1.13
2022-12-15T09:49:57.159Z,-1.08
2022-12-15T09:52:44.762Z,-1.00
2022-12-15T09:55:32.761Z,-0.96
2022-12-15T09:58:16.416Z,-0.99
2022-12-15T10:00:55.870Z,-0.98
2022-12-15T10:03:56.195Z,-1.00
2022-12-15T10:06:42.816Z,-0.95
2022-12-15T10:09:22.500Z,-0.90
2022-12-15T10:12:22.521Z,-0.92
2022-12-15T10:15:16.499Z,-0.88
2022-12-15T10:18:03.146Z,-0.84
2022-12-15T10:20:33.459Z,-0.79
2022-12-15T10:23:13.898Z,-0.75
2022-12-15T10:25:51.505Z,-0.70
2022-12-15T10:28:58.414Z,-0.70
2022-12-15T10:31:58.143Z,-0.67
2022-12-15T10:34:34.593Z,-0.66
2022-12-15T10:37:03.254Z,-0.61
2022-12-15T10:39:43.768Z,-0.59
2022-12-15T10:42:24.248Z,-0.55
2022-12-15T10:44:56.777Z,-0.52
2022-12-15T10:47:32.420Z,-0.48
2022-12-15T10:50:24.976Z,-0.48
2022-12-15T10:52:52.542Z,-0.49
2022-12-15T10:55:41.429Z,-0.50
2022-12-15T10:58:21.583Z,-0.47
2022-12-15T11:01:06.616Z,-0.44
2022-12-15T11:03:38.307Z,-0.42
2022-12-15T11:06:18.348Z,-0.45
2022-12-15T11:08:47.434Z,-0.39
2022-12-15T11:11:53.190Z,-0.33
2022-12-15T11:14:29.419Z,-0.31
2022-12-15T11:16:59.204Z,-0.27
2022-12-15T11:19:44.416Z,-0.26
2022-12-15T11:22:52.298Z,-0.23
2022-12-15T11:25:33.640Z,-0.18
2022-12-15T11:28:11.373Z,-0.11
2022-12-15T11:31:25.560Z,-0.06
2022-12-15T11:33:55.849Z,0.00
2022-12-15T11:37:16.162Z,0.03
2022-12-15T11:40:13.342Z,0.07
2022-12-15T11:43:03.122Z,0.07
2022-12-15T11:45:39.338Z,0.12
2022-12-15T11:48:33.487Z,0.13
2022-12-15T11:51:10.415Z,0.15
2022-12-15T11:53:58.312Z,0.15
2022-12-15T11:57:16.241Z,0.17
2022-12-15T11:59:52.099Z,0.20
2022-12-15T12:02:59.033Z,0.22
2022-12-15T12:05:31.934Z,0.22
2022-12-15T12:08:47.054Z,0.24
2022-12-15T12:11:38.904Z,0.28
2022-12-15T12:14:38.057Z,0.34
2022-12-15T12:17:41.501Z,0.39
2022-12-15T12:20:20.479Z,0.42
2022-12-15T12:23:05.165Z,0.45
2022-12-15T12:25:45.309Z,0.46
2022-12-15T12:28:36.639Z,0.49
2022-12-15T12:31:11.303Z,0.53
2022-12-15T12:33:50.629Z,0.54
2022-12-15T12:36:17.547Z,0.56
2022-12-15T12:38:53.440Z,0.55
2022-12-15T12:41:50.937Z,0.54
2022-12-15T12:44:36.532Z,0.58
2022-12-15T12:47:23.471Z,0.54
2022-12-15T12:50:06.872Z,0.55
2022-12-15T12:52:37.875Z,0.52
2022-12-15T12:55:29.004Z,0.46
2022-12-15T12:57:56.448Z,0.46
2022-12-15T13:00:32.635Z,0.50
2022-12-15T13:03:12.467Z,0.45
2022-12-15T13:05:42.519Z,0.45
2022-12-15T13:08:09.385Z,0.42
2022-12-15T13:10:43.378Z,0.31
2022-12-15T13:13:32.656Z,0.32
2022-12-15T13:16:11.815Z,0.28
2022-12-15T13:19:06.979Z,0.21
2022-12-15T13:21:41.613Z,0.18
2022-12-15T13:24:30.385Z,0.14
2022-12-15T13:27:14.168Z,0.09
2022-12-15T13:30:09.494Z,0.05
2022-12-15T13:32:41.868Z,0.06
2022-12-15T13:35:14.877Z,0.02
2022-12-15T13:38:03.160Z,-0.09
2022-12-15T13:40:35.835Z,-0.08
2022-12-15T13:43:05.811Z,-0.13
2022-12-15T13:45:56.104Z,-0.18
2022-12-15T13:48:49.379Z,-0.13
2022-12-15T13:51:34.610Z,-0.07
2022-12-15T13:54:24.197Z,-0.06
2022-12-15T13:57:14.698Z,-0.07
2022-12-15T13:59:50.641Z,-0.06
2022-12-15T14:02:36.658Z,-0.07
2022-12-15T14:05:21.808Z,-0.08
2022-12-15T14:07:54.953Z,-0.14
2022-12-15T14:10:41.838Z,-0.18
2022-12-15T14:13:22.067Z,-0.19
2022-12-15T14:15:56.099Z,-0.29
2022-12-15T14:18:31.976Z,-0.30
2022-12-15T14:21:01.310Z,-0.30
2022-12-15T14:24:19.148Z,-0.36
2022-12-15T14:26:32.428Z,-0.45
2022-12-15T14:29:03.288Z,-0.41
2022-12-15T14:31:31.383Z,-0.56
2022-12-15T14:34:35.794Z,-0.53
2022-12-15T14:37:11.125Z,-0.52
2022-12-15T14:39:50.306Z,-0.54
2022-12-15T14:42:23.688Z,-0.54
2022-12-15T14:44:57.713Z,-0.54
2022-12-15T14:47:35.994Z,-0.65
2022-12-15T14:50:09.892Z,-0.65
2022-12-15T14:52:44.227Z,-0.68
2022-12-15T14:55:37.206Z,-0.70
2022-12-15T14:58:36.060Z,-0.77
2022-12-15T15:01:21.385Z,-0.84
2022-12-15T15:03:57.528Z,-0.85
2022-12-15T15:06:34.552Z,-0.91
2022-12-15T15:09:31.361Z,-0.89
2022-12-15T15:12:26.512Z,-0.90
2022-12-15T15:15:04.630Z,-0.94
2022-12-15T15:17:54.958Z,-0.94
2022-12-15T15:20:37.848Z,-0.95
2022-12-15T15:23:04.577Z,-0.99
2022-12-15T15:25:51.219Z,-1.01
2022-12-15T15:28:18.146Z,-1.07
2022-12-15T15:30:49.927Z,-1.10
2022-12-15T15:33:19.413Z,-1.14
2022-12-15T15:35:57.052Z,-1.16
2022-12-15T15:38:32.316Z,-1.18
2022-12-15T15:41:11.617Z,-1.17
2022-12-15T15:43:38.459Z,-1.19
2022-12-15T15:46:11.677Z,-1.26
2022-12-15T15:48:53.668Z,-1.34
2022-12-15T15:51:21.828Z,-1.31
2022-12-15T15:53:48.790Z,-1.29
2022-12-15T15:56:17.484Z,-1.28
2022-12-15T15:58:44.727Z,-1.33
2022-12-15T16:01:13.487Z,-1.29
2022-12-15T16:03:41.873Z,-1.29
2022-12-15T16:06:18.369Z,-1.30
2022-12-15T16:08:48.980Z,-1.33
2022-12-15T16:11:16.395Z,-1.29
2022-12-15T16:13:43.250Z,-1.31
2022-12-15T16:16:25.019Z,-1.39
2022-12-15T16:18:51.906Z,-1.31
2022-12-15T16:21:22.864Z,-1.35
2022-12-15T16:23:50.991Z,-1.32
2022-12-15T16:26:30.039Z,-1.31
2022-12-15T16:28:57.593Z,-1.26
2022-12-15T16:31:42.042Z,-1.23
2022-12-15T16:34:09.578Z,-1.22
2022-12-15T16:36:36.899Z,-1.27
2022-12-15T16:39:04.463Z,-1.31
2022-12-15T16:41:33.237Z,-1.36
2022-12-15T16:44:00.120Z,-1.40
2022-12-15T16:46:27.223Z,-1.42
2022-12-15T16:48:54.737Z,-1.46
2022-12-15T16:51:37.194Z,-1.44
2022-12-15T16:54:04.923Z,-1.37
2022-12-15T16:56:33.066Z,-1.35
2022-12-15T16:59:30.821Z,-1.29
2022-12-15T17:01:48.119Z,-1.28
2022-12-15T17:04:16.682Z,-1.24
2022-12-15T17:06:43.970Z,-1.20
2022-12-15T17:09:22.226Z,-1.20
2022-12-15T17:11:50.643Z,-1.25
2022-12-15T17:14:17.862Z,-1.28
2022-12-15T17:16:45.058Z,-1.24
2022-12-15T17:19:16.170Z,-1.34
2022-12-15T17:21:52.876Z,-1.31
2022-12-15T17:24:22.435Z,-1.23
2022-12-15T17:26:50.966Z,-1.18
2022-12-15T17:29:23.402Z,-1.20
2022-12-15T17:31:51.190Z,-1.26
2022-12-15T17:34:32.098Z,-1.34
2022-12-15T17:37:06.379Z,-1.43
2022-12-15T17:39:35.327Z,-1.42
2022-12-15T17:42:03.303Z,-1.43
2022-12-15T17:44:37.922Z,-1.47
2022-12-15T17:47:08.970Z,-1.48
2022-12-15T17:49:38.049Z,-1.44
2022-12-15T17:52:34.472Z,-1.41
2022-12-15T17:55:03.263Z,-1.44
2022-12-15T17:57:33.358Z,-1.46
2022-12-15T18:00:02.003Z,-1.50
2022-12-15T18:02:29.604Z,-1.50
2022-12-15T18:04:56.966Z,-1.51
2022-12-15T18:07:24.923Z,-1.50
2022-12-15T18:09:53.210Z,-1.47
2022-12-15T18:12:25.266Z,-1.44
2022-12-15T18:14:52.622Z,-1.45
2022-12-15T18:17:20.421Z,-1.45
2022-12-15T18:19:47.789Z,-1.41
2022-12-15T18:22:22.559Z,-1.39
2022-12-15T18:24:52.112Z,-1.43
2022-12-15T18:27:25.481Z,-1.46
2022-12-15T18:29:53.160Z,-1.43
2022-12-15T18:32:27.870Z,-1.53
2022-12-15T18:34:55.870Z,-1.55
2022-12-15T18:37:28.270Z,-1.51
2022-12-15T18:39:59.508Z,-1.52
2022-12-15T18:42:31.240Z,-1.52
2022-12-15T18:45:00.409Z,-1.48
2022-12-15T18:47:27.827Z,-1.57
2022-12-15T18:49:54.967Z,-1.58
2022-12-15T18:52:27.637Z,-1.60
2022-12-15T18:54:56.931Z,-1.57
2022-12-15T18:57:36.400Z,-1.62
2022-12-15T19:00:20.064Z,-1.65
2022-12-15T19:02:48.690Z,-1.57
2022-12-15T19:05:33.829Z,-1.61
2022-12-15T19:08:13.420Z,-1.63
2022-12-15T19:10:53.667Z,-1.59
2022-12-15T19:13:25.313Z,-1.58
2022-12-15T19:15:53.356Z,-1.60
2022-12-15T19:18:42.531Z,-1.62
2022-12-15T19:21:39.678Z,-1.66
2022-12-15T19:24:11.326Z,-1.58
2022-12-15T19:26:40.311Z,-1.60
2022-12-15T19:29:22.069Z,-1.58
2022-12-15T19:31:49.749Z,-1.52
2022-12-15T19:34:17.331Z,-1.47
2022-12-15T19:36:44.342Z,-1.47
2022-12-15T19:39:24.444Z,-1.47
2022-12-15T19:41:51.550Z,-1.44
2022-12-15T19:44:19.047Z,-1.56
2022-12-15T19:46:46.033Z,-1.59
2022-12-15T19:49:14.407Z,-1.57
2022-12-15T19:51:41.868Z,-1.56
2022-12-15T19:54:17.889Z,-1.60
2022-12-15T19:56:44.765Z,-1.64
2022-12-15T19:59:24.264Z,-1.73
2022-12-15T20:01:51.803Z,-1.77
2022-12-15T20:04:24.108Z,-1.76
2022-12-15T20:06:51.476Z,-1.73
2022-12-15T20:09:19.387Z,-1.78
2022-12-15T20:11:46.523Z,-1.77
2022-12-15T20:14:19.958Z,-1.75
2022-12-15T20:16:47.130Z,-1.79
2022-12-15T20:19:14.632Z,-1.80
2022-12-15T20:21:42.253Z,-1.81
2022-12-15T20:24:18.727Z,-1.80
2022-12-15T20:26:46.921Z,-1.81
2022-12-15T20:29:29.350Z,-1.74
2022-12-15T20:31:58.567Z,-1.72
2022-12-15T20:34:25.775Z,-1.75
2022-12-15T20:36:52.964Z,-1.74
2022-12-15T20:39:26.055Z,-1.80
2022-12-15T20:41:54.548Z,-1.79
2022-12-15T20:44:23.073Z,-1.76
2022-12-15T20:46:50.915Z,-1.76
2022-12-15T20:49:21.822Z,-1.79
2022-12-15T20:51:49.311Z,-1.82
2022-12-15T20:54:22.577Z,-1.85
2022-12-15T20:56:50.246Z,-1.91
2022-12-15T20:59:18.045Z,-1.92
2022-12-15T21:01:46.484Z,-1.88
2022-12-15T21:04:27.589Z,-1.91
2022-12-15T21:07:00.116Z,-1.98
2022-12-15T21:09:29.624Z,-2.02
2022-12-15T21:11:56.726Z,-1.99
2022-12-15T21:14:24.359Z,-2.02
2022-12-15T21:16:51.400Z,-1.99
2022-12-15T21:19:21.199Z,-2.03
2022-12-15T21:21:54.981Z,-2.10
2022-12-15T21:24:28.931Z,-2.08
2022-12-15T21:26:56.342Z,-2.06
2022-12-15T21:29:27.734Z,-2.01
2022-12-15T21:31:54.772Z,-2.08
2022-12-15T21:34:22.134Z,-2.08
2022-12-15T21:36:55.337Z,-2.20
2022-12-15T21:39:29.778Z,-2.13
2022-12-15T21:42:21.191Z,-2.10
2022-12-15T21:44:48.933Z,-2.08
2022-12-15T21:47:52.133Z,-2.10
2022-12-15T21:50:20.094Z,-2.11
2022-12-15T21:52:48.288Z,-2.23
2022-12-15T21:55:19.100Z,-2.23
2022-12-15T21:57:46.072Z,-2.22
2022-12-15T22:00:18.718Z,-2.20
2022-12-15T22:02:48.520Z,-2.20
2022-12-15T22:05:22.117Z,-2.18
2022-12-15T22:07:51.590Z,-2.16
2022-12-15T22:10:19.355Z,-2.17
2022-12-15T22:12:58.937Z,-2.14
2022-12-15T22:15:29.418Z,-2.11
2022-12-15T22:17:56.267Z,-2.15
2022-12-15T22:20:24.962Z,-2.13
2022-12-15T22:22:51.811Z,-2.16
2022-12-15T22:25:24.012Z,-2.17
2022-12-15T22:27:52.494Z,-2.21
2022-12-15T22:30:27.607Z,-2.25
2022-12-15T22:32:54.588Z,-2.19
2022-12-15T22:35:26.603Z,-2.20
2022-12-15T22:37:53.983Z,-2.19
2022-12-15T22:40:23.683Z,-2.14
2022-12-15T22:42:57.640Z,-2.13
2022-12-15T22:45:25.193Z,-2.14
2022-12-15T22:47:53.562Z,-2.17
2022-12-15T22:50:26.288Z,-2.12
2022-12-15T22:52:53.154Z,-2.15
2022-12-15T22:55:24.789Z,-2.19
2022-12-15T22:58:01.349Z,-2.14
2022-12-15T23:00:28.635Z,-2.19
2022-12-15T23:05:25.841Z,-2.07
2022-12-15T23:07:53.369Z,-2.04
2022-12-15T23:10:40.815Z,-2.06
2022-12-15T23:13:07.817Z,-2.09
2022-12-15T23:15:54.695Z,-2.07
2022-12-15T23:18:21.885Z,-1.99
2022-12-15T23:20:49.143Z,-1.95
2022-12-15T23:23:16.032Z,-1.91
2022-12-15T23:25:44.243Z,-1.94
2022-12-15T23:28:11.085Z,-1.97
2022-12-15T23:30:38.304Z,-1.98
2022-12-15T23:33:05.506Z,-2.00
2022-12-15T23:35:32.628Z,-2.04
2022-12-15T23:37:59.633Z,-2.11
2022-12-15T23:40:26.749Z,-2.06
2022-12-15T23:42:53.782Z,-2.08
2022-12-15T23:45:21.155Z,-2.10
2022-12-15T23:47:48.141Z,-2.02
2022-12-15T23:50:15.354Z,-1.99
2022-12-15T23:52:42.227Z,-1.99
2022-12-15T23:55:10.232Z,-1.99
2022-12-15T23:57:39.380Z,-1.99
